sensor_id;sensor_type;location;lat;lon;timestamp;temperature;humidity
18384;DHT22;9318;48.644;9.456;2022-12-10T00:01:41;6.00;99.90
18384;DHT22;9318;48.644;9.456;2022-12-10T00:04:09;6.10;99.90
18384;DHT22;9318;48.644;9.456;2022-12-10T00:06:38;6.20;99.90
18384;DHT22;9318;48.644;9.456;2022-12-10T00:09:07;6.30;99.90
18384;DHT22;9318;48.644;9.456;2022-12-10T00:11:34;6.20;99.90
18384;DHT22;9318;48.644;9.456;2022-12-10T00:14:01;6.20;99.90
18384;DHT22;9318;48.644;9.456;2022-12-10T00:16:29;6.10;99.90
18384;DHT22;9318;48.644;9.456;2022-12-10T00:18:57;6.00;99.90
18384;DHT22;9318;48.644;9.456;2022-12-10T00:21:25;6.10;99.90
18384;DHT22;9318;48.644;9.456;2022-12-10T00:23:53;6.20;99.90
18384;DHT22;9318;48.644;9.456;2022-12-10T00:26:22;6.20;99.90
18384;DHT22;9318;48.644;9.456;2022-12-10T00:28:49;6.30;99.90
18384;DHT22;9318;48.644;9.456;2022-12-10T00:31:18;6.20;99.90
18384;DHT22;9318;48.644;9.456;2022-12-10T00:33:46;6.00;99.90
18384;DHT22;9318;48.644;9.456;2022-12-10T00:36:16;6.00;99.90
18384;DHT22;9318;48.644;9.456;2022-12-10T00:38:45;6.00;99.90
18384;DHT22;9318;48.644;9.456;2022-12-10T00:41:13;6.00;99.90
18384;DHT22;9318;48.644;9.456;2022-12-10T00:43:40;6.00;99.90
18384;DHT22;9318;48.644;9.456;2022-12-10T00:46:08;5.80;99.90
18384;DHT22;9318;48.644;9.456;2022-12-10T00:48:35;5.80;99.90
18384;DHT22;9318;48.644;9.456;2022-12-10T00:51:04;5.90;99.90
18384;DHT22;9318;48.644;9.456;2022-12-10T00:53:34;5.90;99.90
18384;DHT22;9318;48.644;9.456;2022-12-10T00:56:02;5.80;99.90
18384;DHT22;9318;48.644;9.456;2022-12-10T00:58:31;5.90;99.90
18384;DHT22;9318;48.644;9.456;2022-12-10T01:01:07;5.90;99.90
18384;DHT22;9318;48.644;9.456;2022-12-10T01:03:36;5.90;99.90
18384;DHT22;9318;48.644;9.456;2022-12-10T01:06:12;6.00;99.90
18384;DHT22;9318;48.644;9.456;2022-12-10T01:08:41;5.90;99.90
18384;DHT22;9318;48.644;9.456;2022-12-10T01:11:09;5.60;99.90
18384;DHT22;9318;48.644;9.456;2022-12-10T01:13:37;5.50;99.90
18384;DHT22;9318;48.644;9.456;2022-12-10T01:16:06;5.50;99.90
18384;DHT22;9318;48.644;9.456;2022-12-10T01:18:34;5.60;99.90
18384;DHT22;9318;48.644;9.456;2022-12-10T01:21:02;5.40;99.90
18384;DHT22;9318;48.644;9.456;2022-12-10T01:23:31;5.30;99.90
18384;DHT22;9318;48.644;9.456;2022-12-10T01:26:01;5.40;99.90
18384;DHT22;9318;48.644;9.456;2022-12-10T01:28:29;5.60;99.90
18384;DHT22;9318;48.644;9.456;2022-12-10T01:31:00;5.70;99.90
18384;DHT22;9318;48.644;9.456;2022-12-10T01:33:28;5.60;99.90
18384;DHT22;9318;48.644;9.456;2022-12-10T01:35:55;5.60;99.90
18384;DHT22;9318;48.644;9.456;2022-12-10T01:38:22;5.60;99.90
18384;DHT22;9318;48.644;9.456;2022-12-10T01:40:49;5.60;99.90
18384;DHT22;9318;48.644;9.456;2022-12-10T01:43:17;5.40;99.90
18384;DHT22;9318;48.644;9.456;2022-12-10T01:45:44;5.10;99.90
18384;DHT22;9318;48.644;9.456;2022-12-10T01:48:11;4.80;99.90
18384;DHT22;9318;48.644;9.456;2022-12-10T01:50:38;5.10;99.90
18384;DHT22;9318;48.644;9.456;2022-12-10T01:53:06;4.80;99.90
18384;DHT22;9318;48.644;9.456;2022-12-10T01:55:41;4.80;99.90
18384;DHT22;9318;48.644;9.456;2022-12-10T01:58:10;4.70;99.90
18384;DHT22;9318;48.644;9.456;2022-12-10T02:00:46;4.60;99.90
18384;DHT22;9318;48.644;9.456;2022-12-10T02:03:19;4.60;99.90
18384;DHT22;9318;48.644;9.456;2022-12-10T02:05:52;4.90;99.90
18384;DHT22;9318;48.644;9.456;2022-12-10T02:08:26;5.20;99.90
18384;DHT22;9318;48.644;9.456;2022-12-10T02:11:09;5.10;99.90
18384;DHT22;9318;48.644;9.456;2022-12-10T02:13:41;4.90;99.90
18384;DHT22;9318;48.644;9.456;2022-12-10T02:16:14;4.90;99.90
18384;DHT22;9318;48.644;9.456;2022-12-10T02:18:45;4.60;99.90
18384;DHT22;9318;48.644;9.456;2022-12-10T02:21:17;4.50;99.90
18384;DHT22;9318;48.644;9.456;2022-12-10T02:23:47;4.40;99.90
18384;DHT22;9318;48.644;9.456;2022-12-10T02:26:20;4.50;99.90
18384;DHT22;9318;48.644;9.456;2022-12-10T02:31:25;4.70;99.90
18384;DHT22;9318;48.644;9.456;2022-12-10T02:33:57;4.70;99.90
18384;DHT22;9318;48.644;9.456;2022-12-10T02:36:27;4.90;99.90
18384;DHT22;9318;48.644;9.456;2022-12-10T02:38:56;5.00;99.90
18384;DHT22;9318;48.644;9.456;2022-12-10T02:41:27;5.20;99.90
18384;DHT22;9318;48.644;9.456;2022-12-10T02:43:56;5.40;99.90
18384;DHT22;9318;48.644;9.456;2022-12-10T02:46:27;5.50;99.90
18384;DHT22;9318;48.644;9.456;2022-12-10T02:48:55;5.70;99.90
18384;DHT22;9318;48.644;9.456;2022-12-10T02:51:23;5.90;99.90
18384;DHT22;9318;48.644;9.456;2022-12-10T02:53:59;5.90;99.90
18384;DHT22;9318;48.644;9.456;2022-12-10T02:56:32;5.90;99.90
18384;DHT22;9318;48.644;9.456;2022-12-10T02:59:08;5.90;99.90
18384;DHT22;9318;48.644;9.456;2022-12-10T03:01:46;6.00;99.90
18384;DHT22;9318;48.644;9.456;2022-12-10T03:04:22;5.90;99.90
18384;DHT22;9318;48.644;9.456;2022-12-10T03:06:52;5.90;99.90
18384;DHT22;9318;48.644;9.456;2022-12-10T03:09:22;6.00;99.90
18384;DHT22;9318;48.644;9.456;2022-12-10T03:11:58;5.90;99.90
18384;DHT22;9318;48.644;9.456;2022-12-10T03:14:28;5.90;99.90
18384;DHT22;9318;48.644;9.456;2022-12-10T03:16:59;5.80;99.90
18384;DHT22;9318;48.644;9.456;2022-12-10T03:19:30;5.70;99.90
18384;DHT22;9318;48.644;9.456;2022-12-10T03:21:59;5.70;99.90
18384;DHT22;9318;48.644;9.456;2022-12-10T03:24:28;5.80;99.90
18384;DHT22;9318;48.644;9.456;2022-12-10T03:27:04;5.90;99.90
18384;DHT22;9318;48.644;9.456;2022-12-10T03:29:34;5.90;99.90
18384;DHT22;9318;48.644;9.456;2022-12-10T03:32:04;6.00;99.90
18384;DHT22;9318;48.644;9.456;2022-12-10T03:34:32;5.90;99.90
18384;DHT22;9318;48.644;9.456;2022-12-10T03:37:00;5.80;99.90
18384;DHT22;9318;48.644;9.456;2022-12-10T03:39:27;5.50;99.90
18384;DHT22;9318;48.644;9.456;2022-12-10T03:41:54;5.70;99.90
18384;DHT22;9318;48.644;9.456;2022-12-10T03:44:28;5.60;99.90
18384;DHT22;9318;48.644;9.456;2022-12-10T03:46:56;5.70;99.90
18384;DHT22;9318;48.644;9.456;2022-12-10T03:49:24;5.80;99.90
18384;DHT22;9318;48.644;9.456;2022-12-10T03:51:51;5.80;99.90
18384;DHT22;9318;48.644;9.456;2022-12-10T03:54:18;5.80;99.90
18384;DHT22;9318;48.644;9.456;2022-12-10T03:56:46;5.90;99.90
18384;DHT22;9318;48.644;9.456;2022-12-10T03:59:13;5.90;99.90
18384;DHT22;9318;48.644;9.456;2022-12-10T04:01:42;5.80;99.90
18384;DHT22;9318;48.644;9.456;2022-12-10T04:04:12;5.70;99.90
18384;DHT22;9318;48.644;9.456;2022-12-10T04:06:41;5.60;99.90
18384;DHT22;9318;48.644;9.456;2022-12-10T04:09:09;5.60;99.90
18384;DHT22;9318;48.644;9.456;2022-12-10T04:11:37;5.30;99.90
18384;DHT22;9318;48.644;9.456;2022-12-10T04:14:04;5.20;99.90
18384;DHT22;9318;48.644;9.456;2022-12-10T04:16:49;5.10;99.90
18384;DHT22;9318;48.644;9.456;2022-12-10T04:19:17;5.10;99.90
18384;DHT22;9318;48.644;9.456;2022-12-10T04:21:47;5.00;99.90
18384;DHT22;9318;48.644;9.456;2022-12-10T04:24:32;5.10;99.90
18384;DHT22;9318;48.644;9.456;2022-12-10T04:27:20;5.30;99.90
18384;DHT22;9318;48.644;9.456;2022-12-10T04:29:47;5.30;99.90
18384;DHT22;9318;48.644;9.456;2022-12-10T04:32:15;5.30;99.90
18384;DHT22;9318;48.644;9.456;2022-12-10T04:34:43;5.30;99.90
18384;DHT22;9318;48.644;9.456;2022-12-10T04:37:12;5.10;99.90
18384;DHT22;9318;48.644;9.456;2022-12-10T04:39:40;5.10;99.90
18384;DHT22;9318;48.644;9.456;2022-12-10T04:42:07;5.30;99.90
18384;DHT22;9318;48.644;9.456;2022-12-10T04:44:35;5.10;99.90
18384;DHT22;9318;48.644;9.456;2022-12-10T04:47:03;4.70;99.90
18384;DHT22;9318;48.644;9.456;2022-12-10T04:49:31;4.60;99.90
18384;DHT22;9318;48.644;9.456;2022-12-10T04:51:58;4.70;99.90
18384;DHT22;9318;48.644;9.456;2022-12-10T04:54:28;5.00;99.90
18384;DHT22;9318;48.644;9.456;2022-12-10T04:56:55;5.10;99.90
18384;DHT22;9318;48.644;9.456;2022-12-10T04:59:22;5.20;99.90
18384;DHT22;9318;48.644;9.456;2022-12-10T05:01:49;4.80;99.90
18384;DHT22;9318;48.644;9.456;2022-12-10T05:04:18;4.90;99.90
18384;DHT22;9318;48.644;9.456;2022-12-10T05:06:47;4.80;99.90
18384;DHT22;9318;48.644;9.456;2022-12-10T05:09:15;4.70;99.90
18384;DHT22;9318;48.644;9.456;2022-12-10T05:11:44;4.70;99.90
18384;DHT22;9318;48.644;9.456;2022-12-10T05:14:12;4.70;99.90
18384;DHT22;9318;48.644;9.456;2022-12-10T05:16:39;5.00;99.90
18384;DHT22;9318;48.644;9.456;2022-12-10T05:19:07;5.10;99.90
18384;DHT22;9318;48.644;9.456;2022-12-10T05:21:35;5.20;99.90
18384;DHT22;9318;48.644;9.456;2022-12-10T05:24:20;5.30;99.90
18384;DHT22;9318;48.644;9.456;2022-12-10T05:26:49;5.40;99.90
18384;DHT22;9318;48.644;9.456;2022-12-10T05:29:17;5.50;99.90
18384;DHT22;9318;48.644;9.456;2022-12-10T05:31:44;5.60;99.90
18384;DHT22;9318;48.644;9.456;2022-12-10T05:34:11;5.60;99.90
18384;DHT22;9318;48.644;9.456;2022-12-10T05:36:39;5.70;99.90
18384;DHT22;9318;48.644;9.456;2022-12-10T05:39:07;5.60;99.90
18384;DHT22;9318;48.644;9.456;2022-12-10T05:41:36;5.70;99.90
18384;DHT22;9318;48.644;9.456;2022-12-10T05:44:06;5.70;99.90
18384;DHT22;9318;48.644;9.456;2022-12-10T05:46:35;5.60;99.90
18384;DHT22;9318;48.644;9.456;2022-12-10T05:49:04;5.60;99.90
18384;DHT22;9318;48.644;9.456;2022-12-10T05:51:33;5.70;99.90
18384;DHT22;9318;48.644;9.456;2022-12-10T05:54:00;5.90;99.90
18384;DHT22;9318;48.644;9.456;2022-12-10T05:56:29;5.90;99.90
18384;DHT22;9318;48.644;9.456;2022-12-10T05:58:58;5.80;99.90
18384;DHT22;9318;48.644;9.456;2022-12-10T06:01:29;5.80;99.90
18384;DHT22;9318;48.644;9.456;2022-12-10T06:03:58;5.80;99.90
18384;DHT22;9318;48.644;9.456;2022-12-10T06:06:27;5.80;99.90
18384;DHT22;9318;48.644;9.456;2022-12-10T06:08:56;5.60;99.90
18384;DHT22;9318;48.644;9.456;2022-12-10T06:11:26;5.40;99.90
18384;DHT22;9318;48.644;9.456;2022-12-10T06:13:53;5.70;99.90
18384;DHT22;9318;48.644;9.456;2022-12-10T06:16:21;5.70;99.90
18384;DHT22;9318;48.644;9.456;2022-12-10T06:18:51;5.70;99.90
18384;DHT22;9318;48.644;9.456;2022-12-10T06:21:19;5.60;99.90
18384;DHT22;9318;48.644;9.456;2022-12-10T06:23:47;5.50;99.90
18384;DHT22;9318;48.644;9.456;2022-12-10T06:26:18;5.30;99.90
18384;DHT22;9318;48.644;9.456;2022-12-10T06:28:46;5.00;99.90
18384;DHT22;9318;48.644;9.456;2022-12-10T06:31:14;4.90;99.90
18384;DHT22;9318;48.644;9.456;2022-12-10T06:33:42;4.80;99.90
18384;DHT22;9318;48.644;9.456;2022-12-10T06:36:12;4.90;99.90
18384;DHT22;9318;48.644;9.456;2022-12-10T06:38:40;4.60;99.90
18384;DHT22;9318;48.644;9.456;2022-12-10T06:41:10;4.70;99.90
18384;DHT22;9318;48.644;9.456;2022-12-10T06:43:37;4.70;99.90
18384;DHT22;9318;48.644;9.456;2022-12-10T06:46:05;4.60;99.90
18384;DHT22;9318;48.644;9.456;2022-12-10T06:48:33;4.80;99.90
18384;DHT22;9318;48.644;9.456;2022-12-10T06:51:00;4.90;99.90
18384;DHT22;9318;48.644;9.456;2022-12-10T06:53:29;4.80;99.90
18384;DHT22;9318;48.644;9.456;2022-12-10T06:55:58;4.80;99.90
18384;DHT22;9318;48.644;9.456;2022-12-10T06:58:26;4.90;99.90
18384;DHT22;9318;48.644;9.456;2022-12-10T07:00:54;4.80;99.90
18384;DHT22;9318;48.644;9.456;2022-12-10T07:03:21;4.90;99.90
18384;DHT22;9318;48.644;9.456;2022-12-10T07:05:49;4.80;99.90
18384;DHT22;9318;48.644;9.456;2022-12-10T07:08:16;4.80;99.90
18384;DHT22;9318;48.644;9.456;2022-12-10T07:10:46;4.70;99.90
18384;DHT22;9318;48.644;9.456;2022-12-10T07:13:13;4.80;99.90
18384;DHT22;9318;48.644;9.456;2022-12-10T07:15:40;4.80;99.90
18384;DHT22;9318;48.644;9.456;2022-12-10T07:18:08;4.80;99.90
18384;DHT22;9318;48.644;9.456;2022-12-10T07:20:35;5.00;99.90
18384;DHT22;9318;48.644;9.456;2022-12-10T07:23:02;5.10;99.90
18384;DHT22;9318;48.644;9.456;2022-12-10T07:25:29;5.40;99.90
18384;DHT22;9318;48.644;9.456;2022-12-10T07:27:58;5.40;99.90
18384;DHT22;9318;48.644;9.456;2022-12-10T07:30:26;5.30;99.90
18384;DHT22;9318;48.644;9.456;2022-12-10T07:32:53;5.00;99.90
18384;DHT22;9318;48.644;9.456;2022-12-10T07:35:20;5.00;99.90
18384;DHT22;9318;48.644;9.456;2022-12-10T07:37:47;5.10;99.90
18384;DHT22;9318;48.644;9.456;2022-12-10T07:40:14;5.30;99.90
18384;DHT22;9318;48.644;9.456;2022-12-10T07:42:42;5.40;99.90
18384;DHT22;9318;48.644;9.456;2022-12-10T07:45:11;5.40;99.90
18384;DHT22;9318;48.644;9.456;2022-12-10T07:47:38;5.50;99.90
18384;DHT22;9318;48.644;9.456;2022-12-10T07:50:07;5.50;99.90
18384;DHT22;9318;48.644;9.456;2022-12-10T07:52:34;5.50;99.90
18384;DHT22;9318;48.644;9.456;2022-12-10T07:55:02;5.50;99.90
18384;DHT22;9318;48.644;9.456;2022-12-10T07:57:29;5.60;99.90
18384;DHT22;9318;48.644;9.456;2022-12-10T07:59:56;5.40;99.90
18384;DHT22;9318;48.644;9.456;2022-12-10T08:02:26;5.40;99.90
18384;DHT22;9318;48.644;9.456;2022-12-10T08:04:53;5.00;99.90
18384;DHT22;9318;48.644;9.456;2022-12-10T08:07:20;4.90;99.90
18384;DHT22;9318;48.644;9.456;2022-12-10T08:09:47;4.90;99.90
18384;DHT22;9318;48.644;9.456;2022-12-10T08:12:14;4.90;99.90
18384;DHT22;9318;48.644;9.456;2022-12-10T08:14:42;4.80;99.90
18384;DHT22;9318;48.644;9.456;2022-12-10T08:17:09;4.90;99.90
18384;DHT22;9318;48.644;9.456;2022-12-10T08:19:38;5.00;99.90
18384;DHT22;9318;48.644;9.456;2022-12-10T08:22:05;5.10;99.90
18384;DHT22;9318;48.644;9.456;2022-12-10T08:24:33;5.30;99.90
18384;DHT22;9318;48.644;9.456;2022-12-10T08:27:00;5.40;99.90
18384;DHT22;9318;48.644;9.456;2022-12-10T08:29:27;5.50;99.90
18384;DHT22;9318;48.644;9.456;2022-12-10T08:31:55;5.60;99.90
18384;DHT22;9318;48.644;9.456;2022-12-10T08:34:22;5.50;99.90
18384;DHT22;9318;48.644;9.456;2022-12-10T08:36:51;5.50;99.90
18384;DHT22;9318;48.644;9.456;2022-12-10T08:39:18;5.60;99.90
18384;DHT22;9318;48.644;9.456;2022-12-10T08:41:46;5.80;99.90
18384;DHT22;9318;48.644;9.456;2022-12-10T08:44:13;5.80;99.90
18384;DHT22;9318;48.644;9.456;2022-12-10T08:46:40;5.90;99.90
18384;DHT22;9318;48.644;9.456;2022-12-10T08:49:08;6.00;99.90
18384;DHT22;9318;48.644;9.456;2022-12-10T08:51:35;6.00;99.90
18384;DHT22;9318;48.644;9.456;2022-12-10T08:54:04;5.90;99.90
18384;DHT22;9318;48.644;9.456;2022-12-10T08:56:31;6.00;99.90
18384;DHT22;9318;48.644;9.456;2022-12-10T08:58:58;5.80;99.90
18384;DHT22;9318;48.644;9.456;2022-12-10T09:01:25;5.80;99.90
18384;DHT22;9318;48.644;9.456;2022-12-10T09:03:53;5.90;99.90
18384;DHT22;9318;48.644;9.456;2022-12-10T09:06:22;5.80;99.90
18384;DHT22;9318;48.644;9.456;2022-12-10T09:08:51;5.80;99.90
18384;DHT22;9318;48.644;9.456;2022-12-10T09:11:21;5.80;99.90
18384;DHT22;9318;48.644;9.456;2022-12-10T09:13:49;5.90;99.90
18384;DHT22;9318;48.644;9.456;2022-12-10T09:16:17;6.10;99.90
18384;DHT22;9318;48.644;9.456;2022-12-10T09:18:45;6.10;99.90
18384;DHT22;9318;48.644;9.456;2022-12-10T09:21:14;6.20;99.90
18384;DHT22;9318;48.644;9.456;2022-12-10T09:23:42;6.30;99.90
18384;DHT22;9318;48.644;9.456;2022-12-10T09:26:11;6.50;99.90
18384;DHT22;9318;48.644;9.456;2022-12-10T09:28:40;6.50;99.90
18384;DHT22;9318;48.644;9.456;2022-12-10T09:31:08;6.30;99.90
18384;DHT22;9318;48.644;9.456;2022-12-10T09:33:36;6.40;99.90
18384;DHT22;9318;48.644;9.456;2022-12-10T09:36:04;6.50;99.90
18384;DHT22;9318;48.644;9.456;2022-12-10T09:38:33;6.60;99.90
18384;DHT22;9318;48.644;9.456;2022-12-10T09:41:02;6.70;99.90
18384;DHT22;9318;48.644;9.456;2022-12-10T09:43:44;6.70;99.90
18384;DHT22;9318;48.644;9.456;2022-12-10T09:46:20;6.50;99.90
18384;DHT22;9318;48.644;9.456;2022-12-10T09:49:02;6.30;99.90
18384;DHT22;9318;48.644;9.456;2022-12-10T09:51:35;6.20;99.90
18384;DHT22;9318;48.644;9.456;2022-12-10T09:54:11;6.30;99.90
18384;DHT22;9318;48.644;9.456;2022-12-10T09:56:40;6.50;99.90
18384;DHT22;9318;48.644;9.456;2022-12-10T09:59:15;6.30;99.90
18384;DHT22;9318;48.644;9.456;2022-12-10T10:01:44;6.30;99.90
18384;DHT22;9318;48.644;9.456;2022-12-10T10:04:12;6.20;99.90
18384;DHT22;9318;48.644;9.456;2022-12-10T10:06:40;6.20;99.90
18384;DHT22;9318;48.644;9.456;2022-12-10T10:09:11;6.20;99.90
18384;DHT22;9318;48.644;9.456;2022-12-10T10:11:40;6.40;99.90
18384;DHT22;9318;48.644;9.456;2022-12-10T10:14:13;6.20;99.90
18384;DHT22;9318;48.644;9.456;2022-12-10T10:16:45;6.00;99.90
18384;DHT22;9318;48.644;9.456;2022-12-10T10:19:17;5.90;99.90
18384;DHT22;9318;48.644;9.456;2022-12-10T10:24:14;5.80;99.90
18384;DHT22;9318;48.644;9.456;2022-12-10T10:26:42;5.90;99.90
18384;DHT22;9318;48.644;9.456;2022-12-10T10:29:17;5.80;99.90
18384;DHT22;9318;48.644;9.456;2022-12-10T10:31:45;5.70;99.90
18384;DHT22;9318;48.644;9.456;2022-12-10T10:34:15;5.70;99.90
18384;DHT22;9318;48.644;9.456;2022-12-10T10:36:44;5.90;99.90
18384;DHT22;9318;48.644;9.456;2022-12-10T10:39:24;6.20;99.90
18384;DHT22;9318;48.644;9.456;2022-12-10T10:41:54;6.20;99.90
18384;DHT22;9318;48.644;9.456;2022-12-10T10:44:26;6.30;99.90
18384;DHT22;9318;48.644;9.456;2022-12-10T10:46:55;6.40;99.90
18384;DHT22;9318;48.644;9.456;2022-12-10T10:49:25;6.50;99.90
18384;DHT22;9318;48.644;9.456;2022-12-10T10:51:53;6.70;99.90
18384;DHT22;9318;48.644;9.456;2022-12-10T10:54:32;6.90;99.90
18384;DHT22;9318;48.644;9.456;2022-12-10T10:57:06;7.30;99.90
18384;DHT22;9318;48.644;9.456;2022-12-10T10:59:39;7.40;99.90
18384;DHT22;9318;48.644;9.456;2022-12-10T11:02:18;7.50;99.90
18384;DHT22;9318;48.644;9.456;2022-12-10T11:04:47;7.40;99.90
18384;DHT22;9318;48.644;9.456;2022-12-10T11:07:20;7.40;99.90
18384;DHT22;9318;48.644;9.456;2022-12-10T11:09:49;7.40;99.90
18384;DHT22;9318;48.644;9.456;2022-12-10T11:12:35;7.20;99.90
18384;DHT22;9318;48.644;9.456;2022-12-10T11:17:57;6.80;99.90
18384;DHT22;9318;48.644;9.456;2022-12-10T11:20:27;6.50;99.90
18384;DHT22;9318;48.644;9.456;2022-12-10T11:22:56;6.50;99.90
18384;DHT22;9318;48.644;9.456;2022-12-10T11:25:33;6.70;99.90
18384;DHT22;9318;48.644;9.456;2022-12-10T11:28:15;6.90;99.90
18384;DHT22;9318;48.644;9.456;2022-12-10T11:30:56;7.20;99.90
18384;DHT22;9318;48.644;9.456;2022-12-10T11:33:33;7.10;99.90
18384;DHT22;9318;48.644;9.456;2022-12-10T11:36:10;7.00;99.90
18384;DHT22;9318;48.644;9.456;2022-12-10T11:38:47;6.90;99.90
18384;DHT22;9318;48.644;9.456;2022-12-10T11:41:24;6.70;99.90
18384;DHT22;9318;48.644;9.456;2022-12-10T11:44:16;6.40;99.90
18384;DHT22;9318;48.644;9.456;2022-12-10T11:47:01;6.10;99.90
18384;DHT22;9318;48.644;9.456;2022-12-10T11:49:38;5.90;99.90
18384;DHT22;9318;48.644;9.456;2022-12-10T11:52:15;5.70;99.90
18384;DHT22;9318;48.644;9.456;2022-12-10T11:54:54;5.70;99.90
18384;DHT22;9318;48.644;9.456;2022-12-10T11:57:30;5.70;99.90
18384;DHT22;9318;48.644;9.456;2022-12-10T12:00:04;5.90;99.90
18384;DHT22;9318;48.644;9.456;2022-12-10T12:02:55;6.00;99.90
18384;DHT22;9318;48.644;9.456;2022-12-10T12:05:42;6.30;99.90
18384;DHT22;9318;48.644;9.456;2022-12-10T12:08:21;6.60;99.90
18384;DHT22;9318;48.644;9.456;2022-12-10T12:13:48;6.90;99.90
18384;DHT22;9318;48.644;9.456;2022-12-10T12:16:23;6.80;99.90
18384;DHT22;9318;48.644;9.456;2022-12-10T12:18:59;6.80;99.90
18384;DHT22;9318;48.644;9.456;2022-12-10T12:21:27;6.90;99.90
18384;DHT22;9318;48.644;9.456;2022-12-10T12:23:58;6.90;99.90
18384;DHT22;9318;48.644;9.456;2022-12-10T12:26:29;6.60;99.90
18384;DHT22;9318;48.644;9.456;2022-12-10T12:29:08;6.40;99.90
18384;DHT22;9318;48.644;9.456;2022-12-10T12:31:40;6.30;99.90
18384;DHT22;9318;48.644;9.456;2022-12-10T12:34:17;6.40;99.90
18384;DHT22;9318;48.644;9.456;2022-12-10T12:36:46;6.50;99.90
18384;DHT22;9318;48.644;9.456;2022-12-10T12:39:19;6.60;99.90
18384;DHT22;9318;48.644;9.456;2022-12-10T12:41:55;6.60;99.90
18384;DHT22;9318;48.644;9.456;2022-12-10T12:44:29;6.50;99.90
18384;DHT22;9318;48.644;9.456;2022-12-10T12:47:03;6.40;99.90
18384;DHT22;9318;48.644;9.456;2022-12-10T12:49:37;6.40;99.90
18384;DHT22;9318;48.644;9.456;2022-12-10T12:52:10;6.50;99.90
18384;DHT22;9318;48.644;9.456;2022-12-10T12:54:43;6.80;99.90
18384;DHT22;9318;48.644;9.456;2022-12-10T12:57:14;7.00;99.90
18384;DHT22;9318;48.644;9.456;2022-12-10T12:59:53;6.90;99.90
18384;DHT22;9318;48.644;9.456;2022-12-10T13:02:43;6.80;99.90
18384;DHT22;9318;48.644;9.456;2022-12-10T13:05:20;6.50;99.90
18384;DHT22;9318;48.644;9.456;2022-12-10T13:11:15;6.20;99.90
18384;DHT22;9318;48.644;9.456;2022-12-10T13:16:59;6.10;99.90
18384;DHT22;9318;48.644;9.456;2022-12-10T13:19:31;6.10;99.90
18384;DHT22;9318;48.644;9.456;2022-12-10T13:22:05;6.20;99.90
18384;DHT22;9318;48.644;9.456;2022-12-10T13:25:10;6.30;99.90
18384;DHT22;9318;48.644;9.456;2022-12-10T13:27:38;6.20;99.90
18384;DHT22;9318;48.644;9.456;2022-12-10T13:30:30;6.20;99.90
18384;DHT22;9318;48.644;9.456;2022-12-10T13:33:10;6.30;99.90
18384;DHT22;9318;48.644;9.456;2022-12-10T13:35:50;6.30;99.90
18384;DHT22;9318;48.644;9.456;2022-12-10T13:38:23;6.20;99.90
18384;DHT22;9318;48.644;9.456;2022-12-10T13:41:02;6.10;99.90
18384;DHT22;9318;48.644;9.456;2022-12-10T13:43:55;6.10;99.90
18384;DHT22;9318;48.644;9.456;2022-12-10T13:46:58;6.30;99.90
18384;DHT22;9318;48.644;9.456;2022-12-10T13:49:28;6.60;99.90
18384;DHT22;9318;48.644;9.456;2022-12-10T13:51:58;6.50;99.90
18384;DHT22;9318;48.644;9.456;2022-12-10T13:54:55;6.40;99.90
18384;DHT22;9318;48.644;9.456;2022-12-10T13:57:37;6.60;99.90
18384;DHT22;9318;48.644;9.456;2022-12-10T14:00:12;6.60;99.90
18384;DHT22;9318;48.644;9.456;2022-12-10T14:06:10;6.50;99.90
18384;DHT22;9318;48.644;9.456;2022-12-10T14:08:41;6.40;99.90
18384;DHT22;9318;48.644;9.456;2022-12-10T14:11:19;6.20;99.90
18384;DHT22;9318;48.644;9.456;2022-12-10T14:13:51;5.70;99.90
18384;DHT22;9318;48.644;9.456;2022-12-10T14:16:22;5.80;99.90
18384;DHT22;9318;48.644;9.456;2022-12-10T14:18:53;5.80;99.90
18384;DHT22;9318;48.644;9.456;2022-12-10T14:21:22;5.90;99.90
18384;DHT22;9318;48.644;9.456;2022-12-10T14:23:52;6.10;99.90
18384;DHT22;9318;48.644;9.456;2022-12-10T14:26:22;6.20;99.90
18384;DHT22;9318;48.644;9.456;2022-12-10T14:28:56;6.30;99.90
18384;DHT22;9318;48.644;9.456;2022-12-10T14:31:27;6.40;99.90
18384;DHT22;9318;48.644;9.456;2022-12-10T14:34:00;6.40;99.90
18384;DHT22;9318;48.644;9.456;2022-12-10T14:36:29;6.50;99.90
18384;DHT22;9318;48.644;9.456;2022-12-10T14:38:58;6.30;99.90
18384;DHT22;9318;48.644;9.456;2022-12-10T14:41:29;6.20;99.90
18384;DHT22;9318;48.644;9.456;2022-12-10T14:44:02;6.40;99.90
18384;DHT22;9318;48.644;9.456;2022-12-10T14:46:30;6.40;99.90
18384;DHT22;9318;48.644;9.456;2022-12-10T14:48:58;6.40;99.90
18384;DHT22;9318;48.644;9.456;2022-12-10T14:51:31;6.30;99.90
18384;DHT22;9318;48.644;9.456;2022-12-10T14:53:59;6.30;99.90
18384;DHT22;9318;48.644;9.456;2022-12-10T14:56:30;6.20;99.90
18384;DHT22;9318;48.644;9.456;2022-12-10T14:59:04;6.20;99.90
18384;DHT22;9318;48.644;9.456;2022-12-10T15:01:37;6.20;99.90
18384;DHT22;9318;48.644;9.456;2022-12-10T15:04:11;6.20;99.90
18384;DHT22;9318;48.644;9.456;2022-12-10T15:06:39;6.10;99.90
18384;DHT22;9318;48.644;9.456;2022-12-10T15:09:13;5.90;99.90
18384;DHT22;9318;48.644;9.456;2022-12-10T15:11:43;5.90;99.90
18384;DHT22;9318;48.644;9.456;2022-12-10T15:14:18;5.90;99.90
18384;DHT22;9318;48.644;9.456;2022-12-10T15:16:47;6.00;99.90
18384;DHT22;9318;48.644;9.456;2022-12-10T15:19:20;6.00;99.90
18384;DHT22;9318;48.644;9.456;2022-12-10T15:21:48;6.10;99.90
18384;DHT22;9318;48.644;9.456;2022-12-10T15:24:19;6.00;99.90
18384;DHT22;9318;48.644;9.456;2022-12-10T15:26:49;6.00;99.90
18384;DHT22;9318;48.644;9.456;2022-12-10T15:29:34;6.00;99.90
18384;DHT22;9318;48.644;9.456;2022-12-10T15:32:10;6.00;99.90
18384;DHT22;9318;48.644;9.456;2022-12-10T15:34:44;5.90;99.90
18384;DHT22;9318;48.644;9.456;2022-12-10T15:37:17;6.10;99.90
18384;DHT22;9318;48.644;9.456;2022-12-10T15:39:47;5.90;99.90
18384;DHT22;9318;48.644;9.456;2022-12-10T15:42:30;5.90;99.90
18384;DHT22;9318;48.644;9.456;2022-12-10T15:45:01;5.90;99.90
18384;DHT22;9318;48.644;9.456;2022-12-10T15:47:30;5.80;99.90
18384;DHT22;9318;48.644;9.456;2022-12-10T15:49:59;5.70;99.90
18384;DHT22;9318;48.644;9.456;2022-12-10T15:52:28;5.80;99.90
18384;DHT22;9318;48.644;9.456;2022-12-10T15:54:58;6.00;99.90
18384;DHT22;9318;48.644;9.456;2022-12-10T15:57:28;5.90;99.90
18384;DHT22;9318;48.644;9.456;2022-12-10T15:59:57;6.00;99.90
18384;DHT22;9318;48.644;9.456;2022-12-10T16:02:30;6.20;99.90
18384;DHT22;9318;48.644;9.456;2022-12-10T16:05:02;6.20;99.90
18384;DHT22;9318;48.644;9.456;2022-12-10T16:07:29;6.10;99.90
18384;DHT22;9318;48.644;9.456;2022-12-10T16:09:58;6.00;99.90
18384;DHT22;9318;48.644;9.456;2022-12-10T16:12:25;5.80;99.90
18384;DHT22;9318;48.644;9.456;2022-12-10T16:14:55;5.80;99.90
18384;DHT22;9318;48.644;9.456;2022-12-10T16:17:26;5.80;99.90
18384;DHT22;9318;48.644;9.456;2022-12-10T16:19:53;5.90;99.90
18384;DHT22;9318;48.644;9.456;2022-12-10T16:22:22;5.90;99.90
18384;DHT22;9318;48.644;9.456;2022-12-10T16:24:49;5.70;99.90
18384;DHT22;9318;48.644;9.456;2022-12-10T16:27:17;5.80;99.90
18384;DHT22;9318;48.644;9.456;2022-12-10T16:29:44;5.60;99.90
18384;DHT22;9318;48.644;9.456;2022-12-10T16:32:13;5.50;99.90
18384;DHT22;9318;48.644;9.456;2022-12-10T16:34:40;5.30;99.90
18384;DHT22;9318;48.644;9.456;2022-12-10T16:37:09;5.50;99.90
18384;DHT22;9318;48.644;9.456;2022-12-10T16:39:36;5.60;99.90
18384;DHT22;9318;48.644;9.456;2022-12-10T16:42:04;5.70;99.90
18384;DHT22;9318;48.644;9.456;2022-12-10T16:44:31;6.00;99.90
18384;DHT22;9318;48.644;9.456;2022-12-10T16:46:58;6.00;99.90